Time;durP1;ratioP1;P1;durP2;ratioP2;P2;SDS_P1;SDS_P2;PMS_P1;PMS_P2;Temp;Humidity;BMP_temperature;BMP_pressure;BME280_temperature;BME280_humidity;BME280_pressure;Samples;Min_cycle;Max_cycle;Signal;HPM_P1;HPM_P2
2021/06/10 00:01:24;;;;;;;5.20;3.88;;;21.50;54.50;;;;;;5102780;28;20020;-71
2021/06/10 00:03:50;;;;;;;5.82;3.97;;;21.50;54.10;;;;;;5111731;28;20337;-72
2021/06/10 00:06:17;;;;;;;4.40;3.97;;;21.40;54.20;;;;;;5111609;28;20028;-72
2021/06/10 00:08:43;;;;;;;5.78;4.30;;;21.40;54.20;;;;;;5111380;28;20102;-72
2021/06/10 00:11:08;;;;;;;5.47;4.88;;;21.40;54.60;;;;;;5112965;28;20107;-72
2021/06/10 00:13:35;;;;;;;6.18;4.47;;;21.30;54.80;;;;;;5096741;28;20445;-72
2021/06/10 00:16:01;;;;;;;4.00;3.60;;;21.30;54.90;;;;;;5104700;28;20016;-72
2021/06/10 00:18:26;;;;;;;4.18;3.63;;;21.30;54.70;;;;;;5092298;28;20034;-73
2021/06/10 00:20:52;;;;;;;3.95;3.33;;;21.30;54.50;;;;;;5096771;28;20036;-72
2021/06/10 00:23:20;;;;;;;4.35;3.70;;;21.30;54.40;;;;;;5110780;28;20030;-72
2021/06/10 00:25:46;;;;;;;6.57;3.88;;;21.30;54.40;;;;;;5117210;28;20036;-72
2021/06/10 00:28:13;;;;;;;5.13;3.65;;;21.30;54.80;;;;;;5115925;28;20016;-72
2021/06/10 00:30:39;;;;;;;5.18;3.63;;;21.30;54.70;;;;;;5114663;28;20020;-72
2021/06/10 00:33:07;;;;;;;4.40;4.00;;;21.30;54.40;;;;;;5097940;28;20250;-71
2021/06/10 00:35:33;;;;;;;4.72;4.22;;;21.30;54.80;;;;;;5094977;28;20477;-72
2021/06/10 00:38:01;;;;;;;5.18;4.15;;;21.30;54.50;;;;;;5095158;28;20024;-71
2021/06/10 00:40:32;;;;;;;4.45;4.05;;;21.30;54.70;;;;;;5096213;28;20496;-72
2021/06/10 00:42:58;;;;;;;4.85;4.10;;;21.30;54.80;;;;;;5096450;28;20027;-72
2021/06/10 00:45:25;;;;;;;7.95;4.38;;;21.30;55.10;;;;;;5095174;28;20029;-72
2021/06/10 00:47:52;;;;;;;4.70;3.75;;;21.30;55.10;;;;;;5096389;28;20491;-71
2021/06/10 00:50:29;;;;;;;7.35;3.85;;;21.30;55.10;;;;;;5096104;28;20409;-72
2021/06/10 00:52:55;;;;;;;4.38;3.97;;;21.30;55.20;;;;;;5094881;28;20531;-72
2021/06/10 00:55:21;;;;;;;5.53;4.55;;;21.30;55.10;;;;;;5095965;28;20074;-72
2021/06/10 00:57:48;;;;;;;4.35;3.83;;;21.30;55.00;;;;;;5104130;28;20012;-72
2021/06/10 01:00:16;;;;;;;5.47;3.90;;;21.30;54.90;;;;;;5114564;28;20094;-72
2021/06/10 01:02:42;;;;;;;4.85;3.63;;;21.30;54.90;;;;;;5103435;28;20438;-72
2021/06/10 01:05:10;;;;;;;4.88;4.00;;;21.30;55.10;;;;;;5104149;28;20028;-71
2021/06/10 01:08:05;;;;;;;6.30;3.92;;;21.30;55.20;;;;;;5116492;28;20020;-72
2021/06/10 01:10:46;;;;;;;5.32;4.28;;;21.30;55.20;;;;;;5113943;28;20113;-72
2021/06/10 01:13:40;;;;;;;9.13;4.25;;;21.30;55.60;;;;;;5114538;28;20024;-71
2021/06/10 01:16:08;;;;;;;5.97;4.18;;;21.30;55.70;;;;;;5116327;28;20062;-72
2021/06/10 01:18:36;;;;;;;6.10;4.30;;;21.30;55.90;;;;;;5101389;28;20031;-72
2021/06/10 01:21:02;;;;;;;7.50;3.80;;;21.20;55.80;;;;;;5095777;28;20100;-72
2021/06/10 01:23:52;;;;;;;5.38;4.35;;;21.20;56.00;;;;;;5094516;28;20024;-71
2021/06/10 01:26:36;;;;;;;5.07;4.10;;;21.20;56.20;;;;;;5095806;28;20020;-71
2021/06/10 01:29:06;;;;;;;7.65;4.10;;;21.20;56.10;;;;;;5110181;28;20024;-72
2021/06/10 01:31:33;;;;;;;5.07;4.57;;;21.10;56.30;;;;;;5113414;28;20024;-72
2021/06/10 01:34:04;;;;;;;4.90;4.35;;;21.10;56.40;;;;;;5115010;28;20061;-72
2021/06/10 01:36:39;;;;;;;5.63;4.00;;;21.10;56.50;;;;;;5095901;28;20492;-71
2021/06/10 01:39:07;;;;;;;4.07;3.55;;;21.10;56.30;;;;;;5115556;28;20058;-71
2021/06/10 01:41:34;;;;;;;4.30;3.90;;;21.10;56.00;;;;;;5114557;28;20103;-72
2021/06/10 01:44:02;;;;;;;4.82;4.13;;;21.10;56.00;;;;;;5115829;28;20024;-72
2021/06/10 01:46:29;;;;;;;9.27;5.47;;;21.10;55.90;;;;;;5115698;28;20499;-72
2021/06/10 01:48:57;;;;;;;5.30;4.35;;;21.10;56.00;;;;;;5115415;28;20032;-72
2021/06/10 01:51:26;;;;;;;5.72;3.92;;;21.10;56.10;;;;;;5097064;28;20043;-72
2021/06/10 01:53:53;;;;;;;4.57;4.18;;;21.10;56.00;;;;;;5095104;28;20029;-72
2021/06/10 01:56:23;;;;;;;6.43;4.18;;;21.10;56.00;;;;;;5102176;28;20384;-72
2021/06/10 01:58:51;;;;;;;4.97;4.20;;;21.10;56.00;;;;;;5115846;28;20024;-72
2021/06/10 02:01:18;;;;;;;4.72;4.20;;;21.10;55.80;;;;;;5114526;28;20102;-72
2021/06/10 02:03:46;;;;;;;5.82;4.22;;;21.10;55.60;;;;;;5115424;28;20051;-72
2021/06/10 02:06:12;;;;;;;4.95;4.43;;;21.10;55.50;;;;;;5114033;28;20082;-72
2021/06/10 02:08:40;;;;;;;4.28;3.80;;;21.10;55.40;;;;;;5115376;28;20028;-72
2021/06/10 02:11:07;;;;;;;4.72;3.90;;;21.10;55.30;;;;;;5099858;28;20039;-72
2021/06/10 02:13:34;;;;;;;6.07;4.85;;;21.10;55.20;;;;;;5094755;28;20034;-72
2021/06/10 02:16:05;;;;;;;6.28;4.40;;;21.10;55.20;;;;;;5094737;28;20016;-72
2021/06/10 02:18:32;;;;;;;6.70;4.88;;;21.10;55.20;;;;;;5094671;28;20527;-72
2021/06/10 02:21:03;;;;;;;5.15;4.25;;;21.10;55.10;;;;;;5094746;28;20469;-71
2021/06/10 02:23:29;;;;;;;5.20;4.40;;;21.10;55.10;;;;;;5094579;28;20099;-72
2021/06/10 02:25:55;;;;;;;5.95;4.72;;;21.10;55.40;;;;;;5094618;28;20424;-71
2021/06/10 02:28:21;;;;;;;5.85;4.60;;;21.00;55.50;;;;;;5104576;28;20031;-72
2021/06/10 02:30:46;;;;;;;6.20;4.80;;;21.10;55.50;;;;;;5114505;28;20012;-72
2021/06/10 02:33:13;;;;;;;8.48;5.63;;;21.10;55.40;;;;;;5114859;28;20487;-72
2021/06/10 02:35:38;;;;;;;5.68;4.75;;;21.10;55.30;;;;;;5114724;28;20095;-72
2021/06/10 02:38:05;;;;;;;5.40;4.80;;;21.10;55.30;;;;;;5114733;28;20437;-72
2021/06/10 02:40:37;;;;;;;5.28;4.50;;;21.10;55.20;;;;;;5113127;28;20022;-72
2021/06/10 02:43:04;;;;;;;4.63;4.07;;;21.20;55.40;;;;;;5114129;28;20038;-72
2021/06/10 02:45:31;;;;;;;4.20;3.55;;;21.20;55.30;;;;;;5114620;28;20020;-71
2021/06/10 02:47:59;;;;;;;4.30;3.90;;;21.20;55.30;;;;;;5107385;28;20031;-72
2021/06/10 02:50:27;;;;;;;5.55;4.70;;;21.30;55.40;;;;;;5093726;28;20036;-72
2021/06/10 02:52:55;;;;;;;5.03;4.50;;;21.30;55.20;;;;;;5093939;28;20035;-72
2021/06/10 02:55:21;;;;;;;5.15;4.50;;;21.30;55.10;;;;;;5104704;28;20469;-72
2021/06/10 02:57:54;;;;;;;6.35;4.40;;;21.30;55.20;;;;;;5114344;28;20047;-72
2021/06/10 03:00:23;;;;;;;9.57;4.77;;;21.30;55.40;;;;;;5106039;28;20020;-72
2021/06/10 03:02:50;;;;;;;5.13;4.25;;;21.40;55.50;;;;;;5093787;28;20031;-72
2021/06/10 03:05:16;;;;;;;7.00;4.72;;;21.30;55.50;;;;;;5095767;28;20032;-71
2021/06/10 03:07:44;;;;;;;6.35;4.93;;;21.40;55.60;;;;;;5110624;28;20031;-72
2021/06/10 03:10:11;;;;;;;4.88;4.10;;;21.40;55.70;;;;;;5112760;28;20026;-72
2021/06/10 03:12:39;;;;;;;5.65;4.85;;;21.30;55.50;;;;;;5113409;28;20495;-72
2021/06/10 03:15:10;;;;;;;5.70;4.43;;;21.40;55.50;;;;;;5112512;28;20032;-72
2021/06/10 03:17:38;;;;;;;6.22;3.80;;;21.30;55.50;;;;;;5112775;28;20499;-71
2021/06/10 03:20:05;;;;;;;5.75;4.78;;;21.40;55.60;;;;;;5108499;28;20111;-72
2021/06/10 03:22:32;;;;;;;5.13;4.18;;;21.40;55.60;;;;;;5093444;28;20020;-72
2021/06/10 03:25:00;;;;;;;5.28;4.10;;;21.40;55.60;;;;;;5093468;28;20054;-72
2021/06/10 03:27:26;;;;;;;7.78;4.60;;;21.40;55.60;;;;;;5093396;28;20031;-72
2021/06/10 03:29:52;;;;;;;5.50;4.45;;;21.40;55.70;;;;;;5093058;28;20035;-72
2021/06/10 03:32:19;;;;;;;5.28;4.43;;;21.40;55.70;;;;;;5093051;28;20438;-71
2021/06/10 03:34:45;;;;;;;3.92;3.55;;;21.40;55.80;;;;;;5101155;28;20123;-71
2021/06/10 03:37:12;;;;;;;6.28;3.92;;;21.40;55.70;;;;;;5112106;28;20031;-72
2021/06/10 03:39:39;;;;;;;5.53;3.58;;;21.40;55.70;;;;;;5106914;28;20104;-72
2021/06/10 03:42:06;;;;;;;4.38;3.45;;;21.40;55.80;;;;;;5109001;28;20415;-72
2021/06/10 03:44:33;;;;;;;5.93;4.32;;;21.50;55.80;;;;;;5092978;28;20024;-72
2021/06/10 03:46:59;;;;;;;4.03;3.45;;;21.50;56.40;;;;;;5092998;28;20521;-72
2021/06/10 03:49:25;;;;;;;5.00;4.18;;;21.50;55.70;;;;;;5101822;28;20066;-72
2021/06/10 03:51:53;;;;;;;4.65;3.90;;;21.60;55.70;;;;;;5112717;28;20059;-72
2021/06/10 03:54:20;;;;;;;4.03;3.55;;;21.60;55.60;;;;;;5110970;28;20380;-72
2021/06/10 03:56:46;;;;;;;4.85;4.10;;;21.60;55.60;;;;;;5113196;28;20429;-72
2021/06/10 03:59:13;;;;;;;6.28;4.38;;;21.70;55.50;;;;;;5103176;28;20457;-72
2021/06/10 04:01:39;;;;;;;7.65;4.13;;;21.70;55.50;;;;;;5091145;28;20097;-72
2021/06/10 04:04:05;;;;;;;5.28;4.07;;;21.70;55.50;;;;;;5092935;28;20465;-72
2021/06/10 04:06:37;;;;;;;6.07;4.28;;;21.70;55.60;;;;;;5106815;28;20508;-72
2021/06/10 04:09:05;;;;;;;7.20;4.40;;;21.80;55.70;;;;;;5113075;28;20024;-72
2021/06/10 04:11:32;;;;;;;6.53;3.95;;;21.80;55.50;;;;;;5112828;28;20027;-72
2021/06/10 04:13:58;;;;;;;4.60;3.95;;;21.80;55.50;;;;;;5112967;28;20020;-71
2021/06/10 04:16:25;;;;;;;6.25;4.20;;;21.80;55.30;;;;;;5111646;28;20453;-72
2021/06/10 04:18:52;;;;;;;8.88;4.53;;;21.80;55.20;;;;;;5111561;28;20019;-72
2021/06/10 04:21:19;;;;;;;4.90;4.00;;;21.80;55.20;;;;;;5094365;28;20026;-72
2021/06/10 04:23:45;;;;;;;5.00;4.28;;;21.70;55.20;;;;;;5092624;28;20170;-71
2021/06/10 04:26:11;;;;;;;10.30;4.53;;;21.70;55.20;;;;;;5092704;28;20024;-72
2021/06/10 04:28:37;;;;;;;6.80;4.72;;;21.60;55.30;;;;;;5110932;28;20103;-72
2021/06/10 04:31:03;;;;;;;5.55;4.70;;;21.60;55.40;;;;;;5104829;28;20114;-72
2021/06/10 04:33:28;;;;;;;7.10;4.80;;;21.60;55.50;;;;;;5112670;28;20381;-72
2021/06/10 04:35:54;;;;;;;14.38;4.60;;;21.60;55.70;;;;;;5112580;28;20107;-72
2021/06/10 04:38:20;;;;;;;6.85;5.32;;;21.60;55.60;;;;;;5112903;28;20015;-72
2021/06/10 04:40:46;;;;;;;13.07;6.30;;;21.60;55.60;;;;;;5111784;28;20019;-72
2021/06/10 04:43:12;;;;;;;14.35;6.07;;;21.60;55.60;;;;;;5112856;28;20027;-72
2021/06/10 04:45:38;;;;;;;24.58;8.45;;;21.50;55.50;;;;;;5112431;28;20020;-72
2021/06/10 04:48:05;;;;;;;13.38;7.32;;;21.60;55.60;;;;;;5093601;28;20032;-72
2021/06/10 04:50:31;;;;;;;8.13;5.20;;;21.50;55.80;;;;;;5091983;28;20115;-72
2021/06/10 04:52:57;;;;;;;6.72;4.93;;;21.50;55.80;;;;;;5099976;28;20119;-72
2021/06/10 04:55:24;;;;;;;7.05;5.00;;;21.50;55.80;;;;;;5092469;28;20361;-72
2021/06/10 04:57:50;;;;;;;8.38;5.22;;;21.50;55.80;;;;;;5092350;28;20047;-72
2021/06/10 05:00:16;;;;;;;7.40;5.80;;;21.40;55.80;;;;;;5090761;28;20052;-72
2021/06/10 05:02:42;;;;;;;9.48;5.30;;;21.40;55.90;;;;;;5091114;28;20111;-72
2021/06/10 05:05:08;;;;;;;8.60;6.65;;;21.40;55.90;;;;;;5095549;28;20546;-72
2021/06/10 05:07:34;;;;;;;9.55;6.55;;;21.40;55.80;;;;;;5095938;28;20035;-72
2021/06/10 05:10:00;;;;;;;11.48;5.78;;;21.40;55.90;;;;;;5095602;28;20032;-72
2021/06/10 05:12:26;;;;;;;7.40;6.18;;;21.40;55.80;;;;;;5094884;28;20107;-72
2021/06/10 05:14:52;;;;;;;9.35;6.43;;;21.40;55.90;;;;;;5094507;28;20024;-72
2021/06/10 05:17:18;;;;;;;8.77;5.80;;;21.40;55.90;;;;;;5095839;28;20358;-72
2021/06/10 05:19:43;;;;;;;7.40;5.60;;;21.40;55.90;;;;;;5094780;28;20494;-72
2021/06/10 05:22:09;;;;;;;7.68;5.38;;;21.40;55.90;;;;;;5112117;28;20028;-72
2021/06/10 05:24:35;;;;;;;8.35;4.80;;;21.40;55.80;;;;;;5114884;28;20111;-72
2021/06/10 05:27:04;;;;;;;5.63;5.03;;;21.40;56.00;;;;;;5114845;28;20103;-72
2021/06/10 05:29:29;;;;;;;5.03;4.18;;;21.40;55.90;;;;;;5114329;28;20028;-72
2021/06/10 05:31:55;;;;;;;6.13;4.10;;;21.40;55.90;;;;;;5102290;28;20028;-72
2021/06/10 05:34:21;;;;;;;6.65;4.95;;;21.40;56.00;;;;;;5099557;28;20024;-72
2021/06/10 05:36:47;;;;;;;4.90;4.40;;;21.50;56.10;;;;;;5095611;28;20027;-72
2021/06/10 05:39:13;;;;;;;4.93;4.43;;;21.50;56.10;;;;;;5094109;28;20104;-72
2021/06/10 05:41:38;;;;;;;4.95;4.45;;;21.60;56.20;;;;;;5100000;28;20023;-72
2021/06/10 05:44:05;;;;;;;5.40;3.83;;;21.60;56.10;;;;;;5115924;28;20030;-73
2021/06/10 05:46:30;;;;;;;6.72;4.85;;;21.70;55.90;;;;;;5115775;28;20032;-72
2021/06/10 05:48:56;;;;;;;5.70;3.72;;;21.80;55.70;;;;;;5115366;28;20024;-72
2021/06/10 05:51:22;;;;;;;5.13;4.13;;;21.90;55.60;;;;;;5116015;28;20426;-72
2021/06/10 05:53:48;;;;;;;5.97;3.78;;;22.00;55.30;;;;;;5100218;28;20106;-72
2021/06/10 05:56:13;;;;;;;5.13;4.53;;;22.10;55.20;;;;;;5095520;28;20024;-72
2021/06/10 05:58:39;;;;;;;5.55;4.68;;;22.20;54.70;;;;;;5094963;28;20043;-72
2021/06/10 06:01:05;;;;;;;6.07;4.50;;;22.30;54.50;;;;;;5096282;28;20024;-72
2021/06/10 06:03:31;;;;;;;8.50;4.68;;;22.40;54.20;;;;;;5101338;28;20103;-72
2021/06/10 06:05:58;;;;;;;6.20;4.90;;;22.50;54.30;;;;;;5115746;28;20095;-72
2021/06/10 06:08:24;;;;;;;7.88;4.50;;;22.60;54.00;;;;;;5115547;28;20108;-73
2021/06/10 06:10:52;;;;;;;5.20;4.70;;;22.70;54.00;;;;;;5115506;28;20028;-72
2021/06/10 06:13:22;;;;;;;5.93;4.65;;;22.80;53.80;;;;;;5117025;28;20026;-72
2021/06/10 06:15:50;;;;;;;5.85;4.60;;;22.90;53.60;;;;;;5114818;28;20020;-72
2021/06/10 06:18:17;;;;;;;5.05;3.85;;;23.00;53.40;;;;;;5117267;28;20476;-72
2021/06/10 06:20:44;;;;;;;3.88;3.58;;;23.10;53.30;;;;;;5108633;28;20027;-72
2021/06/10 06:23:14;;;;;;;5.95;4.65;;;23.20;53.20;;;;;;5094614;28;20024;-72
2021/06/10 06:25:40;;;;;;;4.53;4.07;;;23.30;52.80;;;;;;5094257;28;20115;-72
2021/06/10 06:28:05;;;;;;;4.53;3.97;;;23.30;53.00;;;;;;5094262;28;20103;-72
2021/06/10 06:30:31;;;;;;;6.30;4.50;;;23.40;53.00;;;;;;5094152;28;20044;-72
2021/06/10 06:32:57;;;;;;;8.77;4.57;;;23.50;53.00;;;;;;5093876;28;20516;-72
2021/06/10 06:35:23;;;;;;;6.80;4.90;;;23.70;52.80;;;;;;5094095;28;20012;-72
2021/06/10 06:37:50;;;;;;;13.52;4.43;;;23.80;52.50;;;;;;5094028;28;20039;-72
2021/06/10 06:40:18;;;;;;;12.18;4.38;;;24.00;52.20;;;;;;5094386;28;20028;-72
2021/06/10 06:42:43;;;;;;;9.18;4.25;;;24.10;52.00;;;;;;5107095;28;20027;-72
2021/06/10 06:45:09;;;;;;;5.40;4.57;;;24.30;51.00;;;;;;5114299;28;20177;-72
2021/06/10 06:47:35;;;;;;;5.35;4.45;;;24.40;50.50;;;;;;5112661;28;20579;-72
2021/06/10 06:50:01;;;;;;;9.10;4.78;;;24.40;50.30;;;;;;5098968;28;20051;-72
2021/06/10 06:52:27;;;;;;;6.45;5.03;;;24.40;50.10;;;;;;5093912;28;20113;-72
2021/06/10 06:54:53;;;;;;;13.50;5.47;;;24.40;49.90;;;;;;5093957;28;20073;-72
2021/06/10 06:57:19;;;;;;;7.95;5.50;;;24.40;50.00;;;;;;5093913;28;20020;-72
2021/06/10 06:59:44;;;;;;;5.85;4.63;;;24.30;50.00;;;;;;5094042;28;20378;-72
2021/06/10 07:02:10;;;;;;;5.50;4.47;;;24.40;50.20;;;;;;5110158;28;20023;-72
2021/06/10 07:04:36;;;;;;;5.35;4.80;;;24.40;50.50;;;;;;5112744;28;20381;-72
2021/06/10 07:07:02;;;;;;;6.15;4.93;;;24.40;50.50;;;;;;5114046;28;20532;-72
2021/06/10 07:09:28;;;;;;;5.88;4.55;;;24.50;51.00;;;;;;5114044;28;20033;-72
2021/06/10 07:11:53;;;;;;;5.68;5.07;;;24.60;50.00;;;;;;5099544;28;20068;-72
2021/06/10 07:14:19;;;;;;;11.77;4.20;;;24.60;49.70;;;;;;5109422;28;20069;-72
2021/06/10 07:16:45;;;;;;;7.65;4.82;;;24.70;49.70;;;;;;5110435;28;20073;-72
2021/06/10 07:19:11;;;;;;;5.88;5.13;;;24.70;49.40;;;;;;5109359;28;20028;-73
2021/06/10 07:21:50;;;;;;;6.85;4.43;;;24.70;48.70;;;;;;5097240;28;20020;-72
2021/06/10 07:24:16;;;;;;;8.48;5.03;;;24.80;48.90;;;;;;5093252;28;20047;-73
2021/06/10 07:26:43;;;;;;;5.82;4.88;;;24.80;49.10;;;;;;5093479;28;20381;-72
2021/06/10 07:29:10;;;;;;;5.20;4.70;;;24.80;49.60;;;;;;5092503;28;20031;-72
2021/06/10 07:31:36;;;;;;;7.03;5.25;;;24.80;49.20;;;;;;5102809;28;20073;-72
2021/06/10 07:34:05;;;;;;;6.53;5.53;;;24.90;49.40;;;;;;5108508;28;20031;-73
2021/06/10 07:36:31;;;;;;;7.00;5.88;;;24.90;49.40;;;;;;5096013;28;20012;-72
2021/06/10 07:38:57;;;;;;;11.52;5.28;;;25.00;49.20;;;;;;5093322;28;20031;-72
2021/06/10 07:41:22;;;;;;;7.20;5.53;;;25.00;49.30;;;;;;5093132;28;20012;-72
2021/06/10 07:43:48;;;;;;;6.18;5.40;;;25.10;49.30;;;;;;5093038;28;20405;-72
2021/06/10 07:46:14;;;;;;;9.20;8.02;;;25.10;49.10;;;;;;5092725;28;20137;-72
2021/06/10 07:48:40;;;;;;;8.50;6.97;;;25.20;48.80;;;;;;5103283;28;20476;-72
2021/06/10 07:51:06;;;;;;;10.95;6.72;;;25.20;48.90;;;;;;5108241;28;20544;-72
2021/06/10 07:53:34;;;;;;;7.32;6.03;;;25.30;48.90;;;;;;5111481;28;20020;-73
2021/06/10 07:56:00;;;;;;;7.95;6.75;;;25.50;48.80;;;;;;5103672;28;20024;-72
2021/06/10 07:58:26;;;;;;;8.43;5.22;;;25.50;48.30;;;;;;5124113;27;20103;-73
2021/06/10 08:00:53;;;;;;;6.00;5.40;;;25.70;48.30;;;;;;5111439;27;20019;-72
2021/06/10 08:03:20;;;;;;;8.10;7.32;;;25.70;47.90;;;;;;5113675;27;20513;-72
2021/06/10 08:05:46;;;;;;;7.28;6.53;;;25.80;47.70;;;;;;5094893;27;20054;-72
2021/06/10 08:08:13;;;;;;;9.50;7.32;;;25.80;47.00;;;;;;5096229;28;20028;-72
2021/06/10 08:10:40;;;;;;;9.57;6.85;;;25.80;47.10;;;;;;5110569;28;20028;-72
2021/06/10 08:13:08;;;;;;;6.82;5.82;;;25.80;47.10;;;;;;5112362;28;20037;-72
2021/06/10 08:15:37;;;;;;;6.25;5.45;;;25.80;47.40;;;;;;5091068;28;20506;-72
2021/06/10 08:18:04;;;;;;;6.32;5.00;;;25.80;46.80;;;;;;5092367;28;20150;-73
2021/06/10 08:20:31;;;;;;;7.70;5.93;;;25.90;47.10;;;;;;5091261;28;20017;-73
2021/06/10 08:23:01;;;;;;;6.43;5.75;;;26.00;46.70;;;;;;5092447;28;20051;-73
2021/06/10 08:25:29;;;;;;;7.13;5.15;;;26.00;46.20;;;;;;5105073;28;20107;-72
2021/06/10 08:28:00;;;;;;;8.90;5.38;;;26.00;46.10;;;;;;5112663;28;20110;-72
2021/06/10 08:30:26;;;;;;;5.40;4.78;;;26.00;46.00;;;;;;5109537;28;20024;-73
2021/06/10 08:32:52;;;;;;;6.85;5.82;;;26.10;45.80;;;;;;5112584;28;20439;-72
2021/06/10 08:35:18;;;;;;;6.65;6.05;;;26.10;45.80;;;;;;5112536;28;20031;-72
2021/06/10 08:37:45;;;;;;;7.05;4.82;;;26.10;46.00;;;;;;5112283;28;20081;-72
2021/06/10 08:40:13;;;;;;;5.85;5.25;;;26.20;46.20;;;;;;5109991;28;20487;-73
2021/06/10 08:42:41;;;;;;;6.53;5.03;;;26.20;45.70;;;;;;5113333;27;20035;-72
2021/06/10 08:45:17;;;;;;;7.70;5.13;;;26.30;45.30;;;;;;5119326;27;20027;-73
2021/06/10 08:47:48;;;;;;;8.38;5.80;;;26.30;45.40;;;;;;5102191;28;20062;-73
2021/06/10 08:50:24;;;;;;;6.97;5.72;;;26.40;45.60;;;;;;5097473;28;20071;-72
2021/06/10 08:52:57;;;;;;;9.68;6.05;;;26.40;45.20;;;;;;5116242;27;20028;-72
2021/06/10 08:55:24;;;;;;;8.13;5.60;;;26.50;44.70;;;;;;5116662;28;20043;-72
2021/06/10 08:57:50;;;;;;;10.05;5.68;;;26.60;45.10;;;;;;5116615;28;20257;-72
2021/06/10 09:00:19;;;;;;;6.38;5.18;;;26.60;44.60;;;;;;5115001;28;20047;-72
2021/06/10 09:02:59;;;;;;;10.80;5.93;;;26.70;44.70;;;;;;5115249;28;20024;-72
2021/06/10 09:05:27;;;;;;;7.72;6.53;;;26.70;45.40;;;;;;5100478;28;20028;-72
2021/06/10 09:07:58;;;;;;;9.65;6.57;;;26.80;44.60;;;;;;5095802;28;20028;-72
2021/06/10 09:10:27;;;;;;;10.80;6.85;;;26.90;44.00;;;;;;5095755;28;20531;-72
2021/06/10 09:12:57;;;;;;;7.05;5.28;;;27.00;44.00;;;;;;5094375;28;20048;-72
2021/06/10 09:15:25;;;;;;;6.05;4.43;;;27.10;44.20;;;;;;5105527;28;20134;-72
2021/06/10 09:17:54;;;;;;;6.43;5.75;;;27.20;43.60;;;;;;5114676;28;20028;-73
2021/06/10 09:20:22;;;;;;;5.63;5.13;;;27.30;43.10;;;;;;5100846;28;20020;-73
2021/06/10 09:23:07;;;;;;;6.40;5.18;;;27.40;43.00;;;;;;5114725;28;20027;-72
2021/06/10 09:25:34;;;;;;;12.95;5.70;;;27.60;43.40;;;;;;5113504;28;20089;-72
2021/06/10 09:28:03;;;;;;;7.00;5.35;;;27.70;43.50;;;;;;5099548;27;20024;-72
2021/06/10 09:30:33;;;;;;;7.50;6.45;;;27.80;43.30;;;;;;5095603;28;20092;-72
2021/06/10 09:33:01;;;;;;;9.20;5.50;;;28.00;42.30;;;;;;5095650;28;20533;-73
2021/06/10 09:35:35;;;;;;;5.57;4.90;;;28.00;42.50;;;;;;5112582;28;20023;-72
2021/06/10 09:38:03;;;;;;;7.68;6.10;;;28.00;42.20;;;;;;5101142;28;20020;-73
2021/06/10 09:40:30;;;;;;;9.27;6.00;;;28.10;41.80;;;;;;5115538;28;20461;-72
2021/06/10 09:42:56;;;;;;;6.07;4.63;;;28.20;42.00;;;;;;5099739;28;20077;-72
2021/06/10 09:45:27;;;;;;;8.20;5.43;;;28.20;42.30;;;;;;5104627;28;20385;-72
2021/06/10 09:47:56;;;;;;;6.22;5.45;;;28.30;41.30;;;;;;5102177;28;20020;-72
2021/06/10 09:50:32;;;;;;;6.00;5.40;;;28.20;41.10;;;;;;5106448;28;20047;-73
2021/06/10 09:53:08;;;;;;;6.97;5.47;;;28.20;41.50;;;;;;5108662;28;20032;-72
2021/06/10 09:55:43;;;;;;;6.55;5.93;;;28.20;41.40;;;;;;5093117;28;20016;-72
2021/06/10 09:58:12;;;;;;;10.32;6.05;;;28.10;42.10;;;;;;5109971;28;20384;-72
2021/06/10 10:01:11;;;;;;;19.33;7.68;;;28.00;40.80;;;;;;5110522;28;20035;-72
2021/06/10 10:03:46;;;;;;;12.82;6.18;;;27.90;41.30;;;;;;5111671;28;20020;-73
2021/06/10 10:06:30;;;;;;;7.82;5.40;;;27.90;41.10;;;;;;5112321;28;20400;-72
2021/06/10 10:09:01;;;;;;;10.77;5.88;;;27.90;42.10;;;;;;5112862;28;20469;-73
2021/06/10 10:11:31;;;;;;;6.70;5.07;;;27.90;40.60;;;;;;5106444;28;20028;-73
2021/06/10 10:13:59;;;;;;;5.43;4.63;;;27.90;41.00;;;;;;5113991;28;20389;-73
2021/06/10 10:16:27;;;;;;;6.57;4.82;;;27.90;41.20;;;;;;5113729;27;20389;-72
2021/06/10 10:18:54;;;;;;;8.32;5.20;;;27.90;40.90;;;;;;5113244;28;20493;-72
2021/06/10 10:21:28;;;;;;;5.35;4.60;;;28.00;39.90;;;;;;5094849;28;20028;-72
2021/06/10 10:24:06;;;;;;;5.25;4.63;;;27.90;39.80;;;;;;5094000;28;20493;-72
2021/06/10 10:26:32;;;;;;;7.40;4.40;;;27.90;39.70;;;;;;5092395;28;20047;-72
2021/06/10 10:29:01;;;;;;;5.35;4.20;;;27.90;39.40;;;;;;5106616;28;20028;-72
2021/06/10 10:31:28;;;;;;;5.57;4.32;;;28.00;38.60;;;;;;5102875;28;20034;-72
2021/06/10 10:33:55;;;;;;;6.80;4.45;;;28.00;38.40;;;;;;5111629;28;20024;-72
2021/06/10 10:36:26;;;;;;;3.90;3.55;;;28.00;37.90;;;;;;5114208;28;20023;-72
2021/06/10 10:39:02;;;;;;;4.68;3.75;;;28.20;38.10;;;;;;5106108;28;20016;-72
2021/06/10 10:41:28;;;;;;;3.30;3.00;;;28.30;37.30;;;;;;5098974;28;20024;-72
2021/06/10 10:44:19;;;;;;;4.18;3.45;;;28.30;36.90;;;;;;5107717;28;20027;-72
2021/06/10 10:47:02;;;;;;;4.60;3.63;;;28.40;37.70;;;;;;5109416;28;20042;-72
2021/06/10 10:49:38;;;;;;;7.53;3.67;;;28.50;36.90;;;;;;5109059;28;20035;-72
2021/06/10 10:52:13;;;;;;;4.63;3.60;;;28.60;36.30;;;;;;5107053;28;20446;-72
2021/06/10 10:54:39;;;;;;;6.85;3.58;;;28.60;36.70;;;;;;5107579;28;20361;-72
2021/06/10 10:57:07;;;;;;;4.50;3.55;;;28.80;36.70;;;;;;5107729;28;20023;-73
2021/06/10 10:59:50;;;;;;;5.15;3.45;;;28.90;36.20;;;;;;5112738;28;20369;-73
2021/06/10 11:02:18;;;;;;;4.45;3.60;;;28.90;35.80;;;;;;5110994;28;20024;-73
2021/06/10 11:04:58;;;;;;;4.07;3.63;;;29.00;35.30;;;;;;5110670;28;20031;-72
2021/06/10 11:07:36;;;;;;;4.20;3.63;;;29.10;35.50;;;;;;5110806;27;20122;-72
2021/06/10 11:10:05;;;;;;;5.05;3.58;;;29.10;35.50;;;;;;5110966;27;20023;-72
2021/06/10 11:12:49;;;;;;;3.85;3.33;;;29.20;34.50;;;;;;5102254;28;20016;-73
2021/06/10 11:15:25;;;;;;;4.90;3.00;;;29.30;33.90;;;;;;5109867;27;20049;-72
2021/06/10 11:17:55;;;;;;;4.93;3.55;;;29.40;34.10;;;;;;5112874;28;20020;-72
2021/06/10 11:20:41;;;;;;;4.50;3.67;;;29.50;34.50;;;;;;5107271;28;20035;-72
2021/06/10 11:23:18;;;;;;;4.03;2.90;;;29.50;33.80;;;;;;5111367;28;20059;-72
2021/06/10 11:25:51;;;;;;;4.00;3.33;;;29.60;34.00;;;;;;5100386;28;20024;-72
2021/06/10 11:28:22;;;;;;;4.07;3.55;;;29.70;32.70;;;;;;5110873;28;20020;-73
2021/06/10 11:30:50;;;;;;;3.85;2.90;;;29.70;32.60;;;;;;5094192;28;20024;-73
2021/06/10 11:33:19;;;;;;;3.72;3.20;;;29.80;33.40;;;;;;5109229;28;20106;-72
2021/06/10 11:35:50;;;;;;;3.88;3.13;;;29.90;32.80;;;;;;5098386;28;20040;-73
2021/06/10 11:38:22;;;;;;;3.10;2.80;;;30.00;32.40;;;;;;5107903;28;20095;-73
2021/06/10 11:41:10;;;;;;;4.03;3.20;;;30.00;32.20;;;;;;5090511;28;20390;-73
2021/06/10 11:43:46;;;;;;;3.30;2.95;;;30.20;32.70;;;;;;5093569;28;20392;-72
2021/06/10 11:46:14;;;;;;;3.22;2.92;;;30.30;32.00;;;;;;5099810;28;20719;-73
2021/06/10 11:48:43;;;;;;;10.75;3.42;;;30.40;32.20;;;;;;5102318;28;20080;-73
2021/06/10 11:51:21;;;;;;;5.38;2.92;;;30.50;31.60;;;;;;5110389;28;20122;-73
2021/06/10 11:53:48;;;;;;;4.53;3.08;;;30.60;31.30;;;;;;5107252;28;20540;-73
2021/06/10 11:56:14;;;;;;;3.40;3.10;;;30.80;30.70;;;;;;5110935;28;20016;-72
2021/06/10 11:58:40;;;;;;;5.95;3.00;;;30.90;30.70;;;;;;5112082;28;20027;-73
2021/06/10 12:01:14;;;;;;;6.53;3.03;;;30.90;30.60;;;;;;5101465;28;20362;-72
2021/06/10 12:03:41;;;;;;;4.32;2.72;;;30.90;31.10;;;;;;5110208;28;20024;-73
2021/06/10 12:06:12;;;;;;;4.10;3.38;;;30.80;30.00;;;;;;5091693;28;20040;-73
2021/06/10 12:08:41;;;;;;;2.70;2.50;;;30.80;30.10;;;;;;5106420;28;20023;-73
2021/06/10 12:11:14;;;;;;;4.30;3.30;;;30.70;30.50;;;;;;5111510;28;20016;-73
2021/06/10 12:13:51;;;;;;;5.23;3.53;;;30.70;31.10;;;;;;5099002;28;20456;-73
2021/06/10 12:16:18;;;;;;;15.70;4.22;;;30.60;31.40;;;;;;5121508;28;20534;-73
2021/06/10 12:18:46;;;;;;;5.38;3.50;;;30.50;31.30;;;;;;5111318;28;20119;-73
2021/06/10 12:21:15;;;;;;;7.80;3.53;;;30.40;31.30;;;;;;5093387;28;20028;-71
2021/06/10 12:23:45;;;;;;;3.15;2.85;;;30.30;30.70;;;;;;5104658;28;20076;-71
2021/06/10 12:26:20;;;;;;;18.35;3.67;;;30.20;31.30;;;;;;5109489;28;20047;-71
2021/06/10 12:28:46;;;;;;;5.78;3.72;;;30.20;31.30;;;;;;5104944;28;20107;-73
2021/06/10 12:31:24;;;;;;;3.08;2.78;;;30.10;31.10;;;;;;5109397;28;20026;-73
2021/06/10 12:33:57;;;;;;;3.38;3.08;;;30.00;31.10;;;;;;5105762;28;20068;-73
2021/06/10 12:36:24;;;;;;;5.20;3.63;;;30.00;31.00;;;;;;5110565;28;20478;-73
2021/06/10 12:38:59;;;;;;;3.35;2.83;;;30.00;31.10;;;;;;5102134;28;20085;-73
2021/06/10 12:41:33;;;;;;;4.93;3.13;;;30.00;31.10;;;;;;5093589;28;20036;-73
2021/06/10 12:44:16;;;;;;;9.77;3.10;;;29.90;30.50;;;;;;5105117;28;20034;-73
2021/06/10 12:46:57;;;;;;;5.65;2.90;;;29.90;30.10;;;;;;5104682;28;20035;-73
2021/06/10 12:49:40;;;;;;;4.82;3.00;;;29.80;30.10;;;;;;5101821;28;20151;-73
2021/06/10 12:52:16;;;;;;;4.60;2.70;;;29.70;29.90;;;;;;5108667;28;20032;-73
2021/06/10 12:54:44;;;;;;;4.03;2.67;;;29.70;29.60;;;;;;5108956;28;20027;-73